PWSweather.com
Personal Weather Stations
Station Observations
SPARKSRC
St. Petersburg, FL 33716

St. Petersburg, FL 33716

Lat: 27.876101, Lon: -82.657194

Elevation: 13

Station Type: Zephyr PWS-1000TD

Latest ConditionsUpdated 7:10:01 PM EDT Monday, May 2, 2016
Currently Today's Max Today's Min Today's Average
Temperature 87.1°F30.6°C 100.4°F38.0°C 74.7°F23.7°C 85.7°F29.8°C
Dew Point 71.6°F22.0°C 77.3°F25.2°C 67.9°F19.9°C 71.9°F22.2°C
Winds 12.1 mph SW19.5 kmh SW 18.3 mph SW29.5 kmh SW - 9.1 mph 14.6 kmh
Wind Gusts 15.2 mph24.5 kmh 23.5 mph37.8 kmh - -
Humidity 60% 81% 45% 65%
Pressure 29.73 in1006.8 mb 29.82 in1009.8 mb 29.72 in1006.4 mb -
Hour Temp Dew Point Humidity Winds Wind Gusts Pressure Precip Precip Rate Daily Precip Total
07:10 PM 87.1°F30.6°C 71.6°F22.0°C 60% 12.1 mph SW19.5 kmh SW 15.2 mph24.5 kmh 29.73 in1006.8 mb 0.00 in0.0 mm 0.00 in0.0 mm 0.00 in0.0 mm
07:05 PM 87.4°F30.8°C 71.4°F21.9°C 59% 9.8 mph SW15.8 kmh SW 15.9 mph25.6 kmh 29.73 in1006.8 mb 0.00 in0.0 mm 0.00 in0.0 mm 0.00 in0.0 mm
07:00 PM 87.8°F31.0°C 71.8°F22.1°C 59% 13.0 mph SW20.9 kmh SW 15.9 mph25.6 kmh 29.73 in1006.8 mb 0.00 in0.0 mm 0.00 in0.0 mm 0.00 in0.0 mm
06:55 PM 88.2°F31.2°C 71.6°F22.0°C 58% 11.4 mph SW18.3 kmh SW 15.9 mph25.6 kmh 29.72 in1006.4 mb 0.00 in0.0 mm 0.00 in0.0 mm 0.00 in0.0 mm
06:50 PM 88.3°F31.3°C 71.8°F22.1°C 58% 10.7 mph SW17.2 kmh SW 15.9 mph25.6 kmh 29.72 in1006.4 mb 0.00 in0.0 mm 0.00 in0.0 mm 0.00 in0.0 mm
06:45 PM 88.7°F31.5°C 71.6°F22.0°C 57% 9.2 mph SW14.8 kmh SW 17.4 mph28.0 kmh 29.72 in1006.4 mb 0.00 in0.0 mm 0.00 in0.0 mm 0.00 in0.0 mm
06:40 PM 89.1°F31.7°C 71.9°F22.2°C 57% 13.0 mph SW20.9 kmh SW 17.4 mph28.0 kmh 29.72 in1006.4 mb 0.00 in0.0 mm 0.00 in0.0 mm 0.00 in0.0 mm
06:35 PM 89.4°F31.9°C 71.7°F22.1°C 56% 13.0 mph SW20.9 kmh SW 16.8 mph27.0 kmh 29.72 in1006.4 mb 0.00 in0.0 mm 0.00 in0.0 mm 0.00 in0.0 mm
06:30 PM 89.6°F32.0°C 71.9°F22.2°C 56% 9.2 mph SW14.8 kmh SW 15.9 mph25.6 kmh 29.72 in1006.4 mb 0.00 in0.0 mm 0.00 in0.0 mm 0.00 in0.0 mm
06:25 PM 90.0°F32.2°C 72.2°F22.3°C 56% 11.4 mph SW18.3 kmh SW 20.6 mph33.2 kmh 29.72 in1006.4 mb 0.00 in0.0 mm 0.00 in0.0 mm 0.00 in0.0 mm
06:20 PM 90.3°F32.4°C 72.0°F22.2°C 55% 10.7 mph SW17.2 kmh SW 20.6 mph33.2 kmh 29.72 in1006.4 mb 0.00 in0.0 mm 0.00 in0.0 mm 0.00 in0.0 mm
06:15 PM 90.3°F32.4°C 72.0°F22.2°C 55% 10.7 mph SW17.2 kmh SW 19.0 mph30.6 kmh 29.72 in1006.4 mb 0.00 in0.0 mm 0.00 in0.0 mm 0.00 in0.0 mm
06:10 PM 90.9°F32.7°C 72.5°F22.5°C 55% 13.0 mph SW20.9 kmh SW 19.0 mph30.6 kmh 29.73 in1006.8 mb 0.00 in0.0 mm 0.00 in0.0 mm 0.00 in0.0 mm
06:05 PM 91.2°F32.9°C 72.9°F22.7°C 55% 10.7 mph SW17.2 kmh SW 18.3 mph29.5 kmh 29.73 in1006.8 mb 0.00 in0.0 mm 0.00 in0.0 mm 0.00 in0.0 mm
06:00 PM 91.4°F33.0°C 72.5°F22.5°C 54% 13.6 mph SW21.9 kmh SW 19.7 mph31.7 kmh 29.73 in1006.8 mb 0.00 in0.0 mm 0.00 in0.0 mm 0.00 in0.0 mm
05:55 PM 91.6°F33.1°C 72.7°F22.6°C 54% 13.0 mph SW20.9 kmh SW 19.7 mph31.7 kmh 29.73 in1006.8 mb 0.00 in0.0 mm 0.00 in0.0 mm 0.00 in0.0 mm
05:50 PM 91.9°F33.3°C 72.4°F22.4°C 53% 14.5 mph SW23.3 kmh SW 17.4 mph28.0 kmh 29.73 in1006.8 mb 0.00 in0.0 mm 0.00 in0.0 mm 0.00 in0.0 mm
05:45 PM 92.3°F33.5°C 72.8°F22.7°C 53% 13.6 mph SW21.9 kmh SW 18.3 mph29.5 kmh 29.73 in1006.8 mb 0.00 in0.0 mm 0.00 in0.0 mm 0.00 in0.0 mm
05:40 PM 92.7°F33.7°C 72.5°F22.5°C 52% 13.6 mph SW21.9 kmh SW 19.0 mph30.6 kmh 29.72 in1006.4 mb 0.00 in0.0 mm 0.00 in0.0 mm 0.00 in0.0 mm
05:35 PM 93.2°F34.0°C 73.0°F22.8°C 52% 15.2 mph WSW24.5 kmh WSW 20.6 mph33.2 kmh 29.73 in1006.8 mb 0.00 in0.0 mm 0.00 in0.0 mm 0.00 in0.0 mm
05:30 PM 93.4°F34.1°C 72.6°F22.6°C 51% 14.5 mph WSW23.3 kmh WSW 21.3 mph34.3 kmh 29.73 in1006.8 mb 0.00 in0.0 mm 0.00 in0.0 mm 0.00 in0.0 mm
05:25 PM 93.7°F34.3°C 73.0°F22.8°C 51% 15.9 mph SW25.6 kmh SW 21.3 mph34.3 kmh 29.73 in1006.8 mb 0.00 in0.0 mm 0.00 in0.0 mm 0.00 in0.0 mm
05:20 PM 93.9°F34.4°C 73.1°F22.8°C 51% 10.7 mph SW17.2 kmh SW 20.6 mph33.2 kmh 29.73 in1006.8 mb 0.00 in0.0 mm 0.00 in0.0 mm 0.00 in0.0 mm
05:15 PM 94.6°F34.8°C 73.2°F22.9°C 50% 14.5 mph SW23.3 kmh SW 22.1 mph35.6 kmh 29.73 in1006.8 mb 0.00 in0.0 mm 0.00 in0.0 mm 0.00 in0.0 mm
05:10 PM 94.6°F34.8°C 73.2°F22.9°C 50% 13.0 mph SW20.9 kmh SW 22.1 mph35.6 kmh 29.73 in1006.8 mb 0.00 in0.0 mm 0.00 in0.0 mm 0.00 in0.0 mm
05:05 PM 94.8°F34.9°C 73.4°F23.0°C 50% 13.6 mph SW21.9 kmh SW 21.3 mph34.3 kmh 29.73 in1006.8 mb 0.00 in0.0 mm 0.00 in0.0 mm 0.00 in0.0 mm
05:00 PM 95.4°F35.2°C 73.9°F23.3°C 50% 15.9 mph SW25.6 kmh SW 21.3 mph34.3 kmh 29.74 in1007.1 mb 0.00 in0.0 mm 0.00 in0.0 mm 0.00 in0.0 mm
04:55 PM 95.7°F35.4°C 73.6°F23.1°C 49% 15.2 mph SW24.5 kmh SW 20.6 mph33.2 kmh 29.73 in1006.8 mb 0.00 in0.0 mm 0.00 in0.0 mm 0.00 in0.0 mm
04:50 PM 95.9°F35.5°C 73.7°F23.2°C 49% 15.2 mph SW24.5 kmh SW 22.1 mph35.6 kmh 29.73 in1006.8 mb 0.00 in0.0 mm 0.00 in0.0 mm 0.00 in0.0 mm
04:45 PM 96.3°F35.7°C 73.5°F23.1°C 48% 15.9 mph SW25.6 kmh SW 22.1 mph35.6 kmh 29.73 in1006.8 mb 0.00 in0.0 mm 0.00 in0.0 mm 0.00 in0.0 mm
04:40 PM 96.3°F35.7°C 74.1°F23.4°C 49% 13.6 mph SW21.9 kmh SW 21.3 mph34.3 kmh 29.73 in1006.8 mb 0.00 in0.0 mm 0.00 in0.0 mm 0.00 in0.0 mm
04:35 PM 96.4°F35.8°C 73.6°F23.1°C 48% 11.4 mph SW18.3 kmh SW 21.3 mph34.3 kmh 29.73 in1006.8 mb 0.00 in0.0 mm 0.00 in0.0 mm 0.00 in0.0 mm
04:30 PM 96.6°F35.9°C 73.8°F23.2°C 48% 14.5 mph SW23.3 kmh SW 21.3 mph34.3 kmh 29.74 in1007.1 mb 0.00 in0.0 mm 0.00 in0.0 mm 0.00 in0.0 mm
04:25 PM 97.0°F36.1°C 73.5°F23.1°C 47% 13.6 mph SW21.9 kmh SW 20.6 mph33.2 kmh 29.73 in1006.8 mb 0.00 in0.0 mm 0.00 in0.0 mm 0.00 in0.0 mm
04:20 PM 97.2°F36.2°C 74.3°F23.5°C 48% 15.2 mph SW24.5 kmh SW 20.6 mph33.2 kmh 29.74 in1007.1 mb 0.00 in0.0 mm 0.00 in0.0 mm 0.00 in0.0 mm
04:15 PM 97.3°F36.3°C 74.4°F23.6°C 48% 14.5 mph SW23.3 kmh SW 21.3 mph34.3 kmh 29.74 in1007.1 mb 0.00 in0.0 mm 0.00 in0.0 mm 0.00 in0.0 mm
04:10 PM 97.2°F36.2°C 74.3°F23.5°C 48% 13.6 mph SW21.9 kmh SW 21.3 mph34.3 kmh 29.74 in1007.1 mb 0.00 in0.0 mm 0.00 in0.0 mm 0.00 in0.0 mm
04:05 PM 97.0°F36.1°C 74.1°F23.4°C 48% 13.6 mph SSW21.9 kmh SSW 21.3 mph34.3 kmh 29.75 in1007.5 mb 0.00 in0.0 mm 0.00 in0.0 mm 0.00 in0.0 mm
04:00 PM 97.2°F36.2°C 74.3°F23.5°C 48% 16.8 mph SW27.0 kmh SW 20.6 mph33.2 kmh 29.75 in1007.5 mb 0.00 in0.0 mm 0.00 in0.0 mm 0.00 in0.0 mm
03:55 PM 97.2°F36.2°C 74.3°F23.5°C 48% 14.5 mph SW23.3 kmh SW 22.1 mph35.6 kmh 29.75 in1007.5 mb 0.00 in0.0 mm 0.00 in0.0 mm 0.00 in0.0 mm
03:50 PM 97.7°F36.5°C 74.1°F23.4°C 47% 14.5 mph SW23.3 kmh SW 22.8 mph36.7 kmh 29.75 in1007.5 mb 0.00 in0.0 mm 0.00 in0.0 mm 0.00 in0.0 mm
03:45 PM 98.4°F36.9°C 74.2°F23.4°C 46% 13.0 mph SW20.9 kmh SW 22.8 mph36.7 kmh 29.75 in1007.5 mb 0.00 in0.0 mm 0.00 in0.0 mm 0.00 in0.0 mm
03:40 PM 98.8°F37.1°C 74.5°F23.6°C 46% 17.4 mph SW28.0 kmh SW 23.5 mph37.8 kmh 29.75 in1007.5 mb 0.00 in0.0 mm 0.00 in0.0 mm 0.00 in0.0 mm
03:35 PM 98.8°F37.1°C 74.5°F23.6°C 46% 18.3 mph SW29.5 kmh SW 23.5 mph37.8 kmh 29.75 in1007.5 mb 0.00 in0.0 mm 0.00 in0.0 mm 0.00 in0.0 mm
03:30 PM 99.0°F37.2°C 74.7°F23.7°C 46% 13.6 mph SW21.9 kmh SW 21.3 mph34.3 kmh 29.76 in1007.8 mb 0.00 in0.0 mm 0.00 in0.0 mm 0.00 in0.0 mm
03:25 PM 99.1°F37.3°C 74.8°F23.8°C 46% 15.9 mph SW25.6 kmh SW 21.3 mph34.3 kmh 29.76 in1007.8 mb 0.00 in0.0 mm 0.00 in0.0 mm 0.00 in0.0 mm
03:20 PM 99.3°F37.4°C 75.0°F23.9°C 46% 15.2 mph SW24.5 kmh SW 20.6 mph33.2 kmh 29.76 in1007.8 mb 0.00 in0.0 mm 0.00 in0.0 mm 0.00 in0.0 mm
03:15 PM 99.5°F37.5°C 74.5°F23.6°C 45% 17.4 mph SW28.0 kmh SW 23.5 mph37.8 kmh 29.76 in1007.8 mb 0.00 in0.0 mm 0.00 in0.0 mm 0.00 in0.0 mm
03:10 PM 99.9°F37.7°C 75.5°F24.2°C 46% 13.6 mph SW21.9 kmh SW 23.5 mph37.8 kmh 29.76 in1007.8 mb 0.00 in0.0 mm 0.00 in0.0 mm 0.00 in0.0 mm
03:05 PM 99.9°F37.7°C 75.5°F24.2°C 46% 14.5 mph SW23.3 kmh SW 23.5 mph37.8 kmh 29.76 in1007.8 mb 0.00 in0.0 mm 0.00 in0.0 mm 0.00 in0.0 mm
03:00 PM 99.9°F37.7°C 75.5°F24.2°C 46% 15.9 mph SW25.6 kmh SW 22.1 mph35.6 kmh 29.76 in1007.8 mb 0.00 in0.0 mm 0.00 in0.0 mm 0.00 in0.0 mm
02:55 PM 100.0°F37.8°C 75.6°F24.2°C 46% 12.1 mph SW19.5 kmh SW 19.7 mph31.7 kmh 29.77 in1008.1 mb 0.00 in0.0 mm 0.00 in0.0 mm 0.00 in0.0 mm
02:50 PM 100.4°F38.0°C 76.0°F24.4°C 46% 8.3 mph SSW13.4 kmh SSW 21.3 mph34.3 kmh 29.77 in1008.1 mb 0.00 in0.0 mm 0.00 in0.0 mm 0.00 in0.0 mm
02:45 PM 99.9°F37.7°C 75.5°F24.2°C 46% 9.8 mph SSW15.8 kmh SSW 21.3 mph34.3 kmh 29.77 in1008.1 mb 0.00 in0.0 mm 0.00 in0.0 mm 0.00 in0.0 mm
02:40 PM 99.7°F37.6°C 76.0°F24.4°C 47% 12.1 mph S19.5 kmh S 22.1 mph35.6 kmh 29.77 in1008.1 mb 0.00 in0.0 mm 0.00 in0.0 mm 0.00 in0.0 mm
02:35 PM 100.0°F37.8°C 76.3°F24.6°C 47% 13.0 mph S20.9 kmh S 22.1 mph35.6 kmh 29.77 in1008.1 mb 0.00 in0.0 mm 0.00 in0.0 mm 0.00 in0.0 mm
02:30 PM 99.5°F37.5°C 76.4°F24.7°C 48% 9.8 mph SSW15.8 kmh SSW 19.0 mph30.6 kmh 29.77 in1008.1 mb 0.00 in0.0 mm 0.00 in0.0 mm 0.00 in0.0 mm
02:25 PM 99.1°F37.3°C 76.1°F24.5°C 48% 13.6 mph SSW21.9 kmh SSW 19.0 mph30.6 kmh 29.77 in1008.1 mb 0.00 in0.0 mm 0.00 in0.0 mm 0.00 in0.0 mm
02:20 PM 98.6°F37.0°C 76.2°F24.6°C 49% 13.0 mph SW20.9 kmh SW 19.7 mph31.7 kmh 29.77 in1008.1 mb 0.00 in0.0 mm 0.00 in0.0 mm 0.00 in0.0 mm
02:15 PM 98.8°F37.1°C 75.8°F24.3°C 48% 12.1 mph S19.5 kmh S 19.7 mph31.7 kmh 29.77 in1008.1 mb 0.00 in0.0 mm 0.00 in0.0 mm 0.00 in0.0 mm
02:10 PM 99.5°F37.5°C 75.8°F24.3°C 47% 11.4 mph S18.3 kmh S 19.0 mph30.6 kmh 29.77 in1008.1 mb 0.00 in0.0 mm 0.00 in0.0 mm 0.00 in0.0 mm
02:05 PM 99.9°F37.7°C 76.8°F24.9°C 48% 9.8 mph SSW15.8 kmh SSW 19.0 mph30.6 kmh 29.78 in1008.5 mb 0.00 in0.0 mm 0.00 in0.0 mm 0.00 in0.0 mm
02:00 PM 100.0°F37.8°C 76.3°F24.6°C 47% 13.0 mph S20.9 kmh S 19.0 mph30.6 kmh 29.79 in1008.8 mb 0.00 in0.0 mm 0.00 in0.0 mm 0.00 in0.0 mm
01:55 PM 99.9°F37.7°C 76.8°F24.9°C 48% 11.4 mph S18.3 kmh S 19.0 mph30.6 kmh 29.78 in1008.5 mb 0.00 in0.0 mm 0.00 in0.0 mm 0.00 in0.0 mm
01:50 PM 98.8°F37.1°C 76.4°F24.7°C 49% 10.7 mph S17.2 kmh S 19.0 mph30.6 kmh 29.78 in1008.5 mb 0.00 in0.0 mm 0.00 in0.0 mm 0.00 in0.0 mm
01:45 PM 97.9°F36.6°C 76.2°F24.6°C 50% 13.6 mph S21.9 kmh S 16.8 mph27.0 kmh 29.79 in1008.8 mb 0.00 in0.0 mm 0.00 in0.0 mm 0.00 in0.0 mm
01:40 PM 96.1°F35.6°C 75.7°F24.3°C 52% 10.7 mph SW17.2 kmh SW 19.0 mph30.6 kmh 29.79 in1008.8 mb 0.00 in0.0 mm 0.00 in0.0 mm 0.00 in0.0 mm
01:35 PM 95.2°F35.1°C 75.4°F24.1°C 53% 13.0 mph SSW20.9 kmh SSW 19.0 mph30.6 kmh 29.79 in1008.8 mb 0.00 in0.0 mm 0.00 in0.0 mm 0.00 in0.0 mm
01:30 PM 95.4°F35.2°C 75.0°F23.9°C 52% 9.2 mph S14.8 kmh S 17.4 mph28.0 kmh 29.79 in1008.8 mb 0.00 in0.0 mm 0.00 in0.0 mm 0.00 in0.0 mm
01:25 PM 96.8°F36.0°C 75.2°F24.0°C 50% 7.6 mph S12.2 kmh S 17.4 mph28.0 kmh 29.79 in1008.8 mb 0.00 in0.0 mm 0.00 in0.0 mm 0.00 in0.0 mm
01:20 PM 98.4°F36.9°C 75.4°F24.1°C 48% 10.7 mph S17.2 kmh S 15.9 mph25.6 kmh 29.79 in1008.8 mb 0.00 in0.0 mm 0.00 in0.0 mm 0.00 in0.0 mm
01:15 PM 99.7°F37.6°C 76.6°F24.8°C 48% 9.8 mph SSE15.8 kmh SSE 13.6 mph21.9 kmh 29.80 in1009.1 mb 0.00 in0.0 mm 0.00 in0.0 mm 0.00 in0.0 mm
01:10 PM 99.5°F37.5°C 76.4°F24.7°C 48% 8.3 mph S13.4 kmh S 15.9 mph25.6 kmh 29.79 in1008.8 mb 0.00 in0.0 mm 0.00 in0.0 mm 0.00 in0.0 mm
01:05 PM 99.0°F37.2°C 75.9°F24.4°C 48% 9.2 mph S14.8 kmh S 19.7 mph31.7 kmh 29.79 in1008.8 mb 0.00 in0.0 mm 0.00 in0.0 mm 0.00 in0.0 mm
01:00 PM 98.6°F37.0°C 76.2°F24.6°C 49% 11.4 mph SSE18.3 kmh SSE 19.7 mph31.7 kmh 29.80 in1009.1 mb 0.00 in0.0 mm 0.00 in0.0 mm 0.00 in0.0 mm
12:55 PM 98.1°F36.7°C 76.3°F24.6°C 50% 10.7 mph SE17.2 kmh SE 14.5 mph23.3 kmh 29.79 in1008.8 mb 0.00 in0.0 mm 0.00 in0.0 mm 0.00 in0.0 mm
12:50 PM 97.3°F36.3°C 76.3°F24.6°C 51% 6.0 mph SE9.7 kmh SE 17.4 mph28.0 kmh 29.80 in1009.1 mb 0.00 in0.0 mm 0.00 in0.0 mm 0.00 in0.0 mm
12:45 PM 96.8°F36.0°C 75.8°F24.3°C 51% 7.6 mph SSE12.2 kmh SSE 17.4 mph28.0 kmh 29.80 in1009.1 mb 0.00 in0.0 mm 0.00 in0.0 mm 0.00 in0.0 mm
12:40 PM 97.0°F36.1°C 75.9°F24.4°C 51% 10.7 mph S17.2 kmh S 14.5 mph23.3 kmh 29.81 in1009.5 mb 0.00 in0.0 mm 0.00 in0.0 mm 0.00 in0.0 mm
12:35 PM 96.8°F36.0°C 75.8°F24.3°C 51% 7.6 mph SE12.2 kmh SE 14.5 mph23.3 kmh 29.81 in1009.5 mb 0.00 in0.0 mm 0.00 in0.0 mm 0.00 in0.0 mm
12:30 PM 97.3°F36.3°C 76.3°F24.6°C 51% 9.8 mph SE15.8 kmh SE 15.2 mph24.5 kmh 29.81 in1009.5 mb 0.00 in0.0 mm 0.00 in0.0 mm 0.00 in0.0 mm
12:25 PM 98.2°F36.8°C 77.1°F25.1°C 51% 8.3 mph SE13.4 kmh SE 15.9 mph25.6 kmh 29.81 in1009.5 mb 0.00 in0.0 mm 0.00 in0.0 mm 0.00 in0.0 mm
12:20 PM 97.7°F36.5°C 77.2°F25.1°C 52% 8.3 mph SSE13.4 kmh SSE 15.9 mph25.6 kmh 29.81 in1009.5 mb 0.00 in0.0 mm 0.00 in0.0 mm 0.00 in0.0 mm
12:15 PM 97.2°F36.2°C 77.3°F25.2°C 53% 5.4 mph SSE8.7 kmh SSE 15.2 mph24.5 kmh 29.80 in1009.1 mb 0.00 in0.0 mm 0.00 in0.0 mm 0.00 in0.0 mm
12:10 PM 97.0°F36.1°C 77.1°F25.1°C 53% 8.3 mph SSE13.4 kmh SSE 15.2 mph24.5 kmh 29.81 in1009.5 mb 0.00 in0.0 mm 0.00 in0.0 mm 0.00 in0.0 mm
12:05 PM 96.4°F35.8°C 77.2°F25.1°C 54% 6.0 mph SE9.7 kmh SE 13.6 mph21.9 kmh 29.81 in1009.5 mb 0.00 in0.0 mm 0.00 in0.0 mm 0.00 in0.0 mm
12:00 PM 95.7°F35.4°C 77.1°F25.1°C 55% 9.2 mph SSE14.8 kmh SSE 15.9 mph25.6 kmh 29.81 in1009.5 mb 0.00 in0.0 mm 0.00 in0.0 mm 0.00 in0.0 mm
11:55 AM 95.4°F35.2°C 76.7°F24.8°C 55% 7.6 mph SSE12.2 kmh SSE 15.9 mph25.6 kmh 29.81 in1009.5 mb 0.00 in0.0 mm 0.00 in0.0 mm 0.00 in0.0 mm
11:50 AM 95.0°F35.0°C 76.9°F24.9°C 56% 6.9 mph SE11.1 kmh SE 15.9 mph25.6 kmh 29.82 in1009.8 mb 0.00 in0.0 mm 0.00 in0.0 mm 0.00 in0.0 mm
11:45 AM 93.9°F34.4°C 76.5°F24.7°C 57% 7.6 mph SSE12.2 kmh SSE 15.2 mph24.5 kmh 29.82 in1009.8 mb 0.00 in0.0 mm 0.00 in0.0 mm 0.00 in0.0 mm
11:40 AM 93.6°F34.2°C 76.1°F24.5°C 57% 9.8 mph SSE15.8 kmh SSE 15.2 mph24.5 kmh 29.82 in1009.8 mb 0.00 in0.0 mm 0.00 in0.0 mm 0.00 in0.0 mm
11:35 AM 93.2°F34.0°C 76.3°F24.6°C 58% 7.6 mph SE12.2 kmh SE 16.8 mph27.0 kmh 29.82 in1009.8 mb 0.00 in0.0 mm 0.00 in0.0 mm 0.00 in0.0 mm
11:30 AM 92.8°F33.8°C 76.0°F24.4°C 58% 10.7 mph SE17.2 kmh SE 16.8 mph27.0 kmh 29.81 in1009.5 mb 0.00 in0.0 mm 0.00 in0.0 mm 0.00 in0.0 mm
11:25 AM 91.9°F33.3°C 76.1°F24.5°C 60% 9.2 mph SE14.8 kmh SE 14.5 mph23.3 kmh 29.81 in1009.5 mb 0.00 in0.0 mm 0.00 in0.0 mm 0.00 in0.0 mm
11:20 AM 90.7°F32.6°C 75.5°F24.2°C 61% 8.3 mph SE13.4 kmh SE 15.2 mph24.5 kmh 29.81 in1009.5 mb 0.00 in0.0 mm 0.00 in0.0 mm 0.00 in0.0 mm
11:15 AM 90.3°F32.4°C 75.6°F24.2°C 62% 8.3 mph S13.4 kmh S 15.2 mph24.5 kmh 29.82 in1009.8 mb 0.00 in0.0 mm 0.00 in0.0 mm 0.00 in0.0 mm
11:10 AM 90.0°F32.2°C 75.3°F24.1°C 62% 7.6 mph SSE12.2 kmh SSE 15.2 mph24.5 kmh 29.81 in1009.5 mb 0.00 in0.0 mm 0.00 in0.0 mm 0.00 in0.0 mm
11:05 AM 89.8°F32.1°C 75.1°F23.9°C 62% 9.2 mph SE14.8 kmh SE 14.5 mph23.3 kmh 29.81 in1009.5 mb 0.00 in0.0 mm 0.00 in0.0 mm 0.00 in0.0 mm
11:00 AM 89.6°F32.0°C 75.4°F24.1°C 63% 7.6 mph SSE12.2 kmh SSE 14.5 mph23.3 kmh 29.81 in1009.5 mb 0.00 in0.0 mm 0.00 in0.0 mm 0.00 in0.0 mm
10:55 AM 89.2°F31.8°C 75.1°F23.9°C 63% 8.3 mph SE13.4 kmh SE 17.4 mph28.0 kmh 29.81 in1009.5 mb 0.00 in0.0 mm 0.00 in0.0 mm 0.00 in0.0 mm
10:50 AM 89.2°F31.8°C 74.6°F23.7°C 62% 9.8 mph SE15.8 kmh SE 17.4 mph28.0 kmh 29.82 in1009.8 mb 0.00 in0.0 mm 0.00 in0.0 mm 0.00 in0.0 mm
10:45 AM 90.0°F32.2°C 75.7°F24.3°C 63% 8.3 mph SE13.4 kmh SE 14.5 mph23.3 kmh 29.82 in1009.8 mb 0.00 in0.0 mm 0.00 in0.0 mm 0.00 in0.0 mm
10:40 AM 90.5°F32.5°C 76.3°F24.6°C 63% 8.3 mph SE13.4 kmh SE 14.5 mph23.3 kmh 29.82 in1009.8 mb 0.00 in0.0 mm 0.00 in0.0 mm 0.00 in0.0 mm
10:35 AM 89.4°F31.9°C 75.7°F24.3°C 64% 6.9 mph SSE11.1 kmh SSE 15.2 mph24.5 kmh 29.81 in1009.5 mb 0.00 in0.0 mm 0.00 in0.0 mm 0.00 in0.0 mm
10:30 AM 89.1°F31.7°C 75.4°F24.1°C 64% 7.6 mph SE12.2 kmh SE 15.2 mph24.5 kmh 29.81 in1009.5 mb 0.00 in0.0 mm 0.00 in0.0 mm 0.00 in0.0 mm
10:25 AM 88.7°F31.5°C 76.0°F24.4°C 66% 9.2 mph SE14.8 kmh SE 13.0 mph20.9 kmh 29.82 in1009.8 mb 0.00 in0.0 mm 0.00 in0.0 mm 0.00 in0.0 mm
10:20 AM 88.0°F31.1°C 75.3°F24.1°C 66% 6.0 mph SE9.7 kmh SE 12.1 mph19.5 kmh 29.82 in1009.8 mb 0.00 in0.0 mm 0.00 in0.0 mm 0.00 in0.0 mm
10:15 AM 87.4°F30.8°C 75.2°F24.0°C 67% 9.2 mph SE14.8 kmh SE 12.1 mph19.5 kmh 29.82 in1009.8 mb 0.00 in0.0 mm 0.00 in0.0 mm 0.00 in0.0 mm
10:10 AM 87.1°F30.6°C 75.3°F24.1°C 68% 6.9 mph SSE11.1 kmh SSE 13.0 mph20.9 kmh 29.82 in1009.8 mb 0.00 in0.0 mm 0.00 in0.0 mm 0.00 in0.0 mm
10:05 AM 86.4°F30.2°C 74.6°F23.7°C 68% 5.4 mph SSE8.7 kmh SSE 15.9 mph25.6 kmh 29.82 in1009.8 mb 0.00 in0.0 mm 0.00 in0.0 mm 0.00 in0.0 mm
10:00 AM 86.0°F30.0°C 74.7°F23.7°C 69% 5.4 mph SSE8.7 kmh SSE 15.9 mph25.6 kmh 29.82 in1009.8 mb 0.00 in0.0 mm 0.00 in0.0 mm 0.00 in0.0 mm
09:55 AM 86.2°F30.1°C 74.4°F23.6°C 68% 9.8 mph SSE15.8 kmh SSE 15.9 mph25.6 kmh 29.82 in1009.8 mb 0.00 in0.0 mm 0.00 in0.0 mm 0.00 in0.0 mm
09:50 AM 86.2°F30.1°C 74.9°F23.8°C 69% 5.4 mph SE8.7 kmh SE 10.7 mph17.2 kmh 29.82 in1009.8 mb 0.00 in0.0 mm 0.00 in0.0 mm 0.00 in0.0 mm
09:45 AM 85.8°F29.9°C 75.0°F23.9°C 70% 5.4 mph SE8.7 kmh SE 9.8 mph15.8 kmh 29.82 in1009.8 mb 0.00 in0.0 mm 0.00 in0.0 mm 0.00 in0.0 mm
09:40 AM 84.6°F29.2°C 74.2°F23.4°C 71% 5.4 mph SSE8.7 kmh SSE 10.7 mph17.2 kmh 29.82 in1009.8 mb 0.00 in0.0 mm 0.00 in0.0 mm 0.00 in0.0 mm
09:35 AM 84.2°F29.0°C 74.3°F23.5°C 72% 6.9 mph SSE11.1 kmh SSE 10.7 mph17.2 kmh 29.82 in1009.8 mb 0.00 in0.0 mm 0.00 in0.0 mm 0.00 in0.0 mm
09:30 AM 83.8°F28.8°C 73.9°F23.3°C 72% 6.9 mph SE11.1 kmh SE 14.5 mph23.3 kmh 29.81 in1009.5 mb 0.00 in0.0 mm 0.00 in0.0 mm 0.00 in0.0 mm
09:25 AM 83.1°F28.4°C 73.2°F22.9°C 72% 8.3 mph SE13.4 kmh SE 14.5 mph23.3 kmh 29.81 in1009.5 mb 0.00 in0.0 mm 0.00 in0.0 mm 0.00 in0.0 mm
09:20 AM 83.5°F28.6°C 73.6°F23.1°C 72% 10.7 mph SE17.2 kmh SE 14.5 mph23.3 kmh 29.81 in1009.5 mb 0.00 in0.0 mm 0.00 in0.0 mm 0.00 in0.0 mm
09:15 AM 82.9°F28.3°C 73.5°F23.1°C 73% 9.2 mph SE14.8 kmh SE 13.0 mph20.9 kmh 29.81 in1009.5 mb 0.00 in0.0 mm 0.00 in0.0 mm 0.00 in0.0 mm
09:10 AM 82.8°F28.2°C 73.7°F23.2°C 74% 10.7 mph SE17.2 kmh SE 13.0 mph20.9 kmh 29.81 in1009.5 mb 0.00 in0.0 mm 0.00 in0.0 mm 0.00 in0.0 mm
09:05 AM 81.9°F27.7°C 73.2°F22.9°C 75% 4.5 mph SE7.2 kmh SE 13.0 mph20.9 kmh 29.81 in1009.5 mb 0.00 in0.0 mm 0.00 in0.0 mm 0.00 in0.0 mm
09:00 AM 81.1°F27.3°C 72.5°F22.5°C 75% 9.2 mph SE14.8 kmh SE 13.0 mph20.9 kmh 29.81 in1009.5 mb 0.00 in0.0 mm 0.00 in0.0 mm 0.00 in0.0 mm
08:55 AM 80.6°F27.0°C 72.4°F22.4°C 76% 6.9 mph SE11.1 kmh SE 13.0 mph20.9 kmh 29.82 in1009.8 mb 0.00 in0.0 mm 0.00 in0.0 mm 0.00 in0.0 mm
08:50 AM 79.9°F26.6°C 71.7°F22.1°C 76% 6.9 mph SE11.1 kmh SE 13.0 mph20.9 kmh 29.82 in1009.8 mb 0.00 in0.0 mm 0.00 in0.0 mm 0.00 in0.0 mm
08:45 AM 79.9°F26.6°C 72.1°F22.3°C 77% 9.2 mph SE14.8 kmh SE 13.0 mph20.9 kmh 29.82 in1009.8 mb 0.00 in0.0 mm 0.00 in0.0 mm 0.00 in0.0 mm
08:40 AM 79.5°F26.4°C 72.1°F22.3°C 78% 7.6 mph SE12.2 kmh SE 13.6 mph21.9 kmh 29.81 in1009.5 mb 0.00 in0.0 mm 0.00 in0.0 mm 0.00 in0.0 mm
08:35 AM 79.0°F26.1°C 71.6°F22.0°C 78% 6.0 mph SE9.7 kmh SE 13.6 mph21.9 kmh 29.81 in1009.5 mb 0.00 in0.0 mm 0.00 in0.0 mm 0.00 in0.0 mm
08:30 AM 78.6°F25.9°C 71.2°F21.8°C 78% 6.9 mph SSE11.1 kmh SSE 12.1 mph19.5 kmh 29.81 in1009.5 mb 0.00 in0.0 mm 0.00 in0.0 mm 0.00 in0.0 mm
08:25 AM 78.1°F25.6°C 70.7°F21.5°C 78% 4.5 mph SE7.2 kmh SE 13.0 mph20.9 kmh 29.81 in1009.5 mb 0.00 in0.0 mm 0.00 in0.0 mm 0.00 in0.0 mm
08:20 AM 77.9°F25.5°C 70.5°F21.4°C 78% 7.6 mph SE12.2 kmh SE 13.6 mph21.9 kmh 29.81 in1009.5 mb 0.00 in0.0 mm 0.00 in0.0 mm 0.00 in0.0 mm
08:15 AM 77.5°F25.3°C 70.2°F21.2°C 78% 6.0 mph SE9.7 kmh SE 13.6 mph21.9 kmh 29.81 in1009.5 mb 0.00 in0.0 mm 0.00 in0.0 mm 0.00 in0.0 mm
08:10 AM 77.5°F25.3°C 70.6°F21.4°C 79% 9.2 mph SE14.8 kmh SE 11.4 mph18.3 kmh 29.81 in1009.5 mb 0.00 in0.0 mm 0.00 in0.0 mm 0.00 in0.0 mm
08:05 AM 77.4°F25.2°C 70.4°F21.3°C 79% 5.4 mph SE8.7 kmh SE 9.8 mph15.8 kmh 29.81 in1009.5 mb 0.00 in0.0 mm 0.00 in0.0 mm 0.00 in0.0 mm
08:00 AM 76.8°F24.9°C 70.2°F21.2°C 80% 4.5 mph SE7.2 kmh SE 9.2 mph14.8 kmh 29.80 in1009.1 mb 0.00 in0.0 mm 0.00 in0.0 mm 0.00 in0.0 mm
07:55 AM 76.1°F24.5°C 69.9°F21.1°C 81% 4.5 mph SE7.2 kmh SE 9.8 mph15.8 kmh 29.81 in1009.5 mb 0.00 in0.0 mm 0.00 in0.0 mm 0.00 in0.0 mm
07:50 AM 75.6°F24.2°C 69.4°F20.8°C 81% 3.8 mph SE6.1 kmh SE 9.8 mph15.8 kmh 29.80 in1009.1 mb 0.00 in0.0 mm 0.00 in0.0 mm 0.00 in0.0 mm
07:45 AM 75.4°F24.1°C 69.2°F20.7°C 81% 6.0 mph SE9.7 kmh SE 11.4 mph18.3 kmh 29.80 in1009.1 mb 0.00 in0.0 mm 0.00 in0.0 mm 0.00 in0.0 mm
07:40 AM 75.4°F24.1°C 69.2°F20.7°C 81% 6.9 mph SSE11.1 kmh SSE 11.4 mph18.3 kmh 29.80 in1009.1 mb 0.00 in0.0 mm 0.00 in0.0 mm 0.00 in0.0 mm
07:35 AM 75.0°F23.9°C 68.8°F20.4°C 81% 5.4 mph SSE8.7 kmh SSE 10.7 mph17.2 kmh 29.80 in1009.1 mb 0.00 in0.0 mm 0.00 in0.0 mm 0.00 in0.0 mm
07:30 AM 75.0°F23.9°C 68.8°F20.4°C 81% 4.5 mph SSE7.2 kmh SSE 11.4 mph18.3 kmh 29.80 in1009.1 mb 0.00 in0.0 mm 0.00 in0.0 mm 0.00 in0.0 mm
07:25 AM 75.0°F23.9°C 68.8°F20.4°C 81% 7.6 mph SE12.2 kmh SE 13.6 mph21.9 kmh 29.80 in1009.1 mb 0.00 in0.0 mm 0.00 in0.0 mm 0.00 in0.0 mm
07:20 AM 74.8°F23.8°C 68.7°F20.4°C 81% 4.5 mph SE7.2 kmh SE 13.6 mph21.9 kmh 29.80 in1009.1 mb 0.00 in0.0 mm 0.00 in0.0 mm 0.00 in0.0 mm
07:15 AM 74.7°F23.7°C 68.1°F20.1°C 80% 6.0 mph SE9.7 kmh SE 9.2 mph14.8 kmh 29.79 in1008.8 mb 0.00 in0.0 mm 0.00 in0.0 mm 0.00 in0.0 mm
07:10 AM 74.8°F23.8°C 68.3°F20.2°C 80% 4.5 mph SE7.2 kmh SE 9.8 mph15.8 kmh 29.80 in1009.1 mb 0.00 in0.0 mm 0.00 in0.0 mm 0.00 in0.0 mm
07:05 AM 74.8°F23.8°C 68.3°F20.2°C 80% 6.0 mph SE9.7 kmh SE 10.7 mph17.2 kmh 29.80 in1009.1 mb 0.00 in0.0 mm 0.00 in0.0 mm 0.00 in0.0 mm
07:00 AM 74.8°F23.8°C 68.3°F20.2°C 80% 5.4 mph SE8.7 kmh SE 10.7 mph17.2 kmh 29.79 in1008.8 mb 0.00 in0.0 mm 0.00 in0.0 mm 0.00 in0.0 mm
06:55 AM 74.8°F23.8°C 68.3°F20.2°C 80% 7.6 mph SE12.2 kmh SE 11.4 mph18.3 kmh 29.79 in1008.8 mb 0.00 in0.0 mm 0.00 in0.0 mm 0.00 in0.0 mm
06:50 AM 74.8°F23.8°C 68.3°F20.2°C 80% 6.0 mph SE9.7 kmh SE 11.4 mph18.3 kmh 29.79 in1008.8 mb 0.00 in0.0 mm 0.00 in0.0 mm 0.00 in0.0 mm
06:45 AM 74.8°F23.8°C 68.3°F20.2°C 80% 5.4 mph SE8.7 kmh SE 10.7 mph17.2 kmh 29.79 in1008.8 mb 0.00 in0.0 mm 0.00 in0.0 mm 0.00 in0.0 mm
06:40 AM 74.8°F23.8°C 68.3°F20.2°C 80% 7.6 mph SE12.2 kmh SE 10.7 mph17.2 kmh 29.78 in1008.5 mb 0.00 in0.0 mm 0.00 in0.0 mm 0.00 in0.0 mm
06:35 AM 74.7°F23.7°C 68.1°F20.1°C 80% 5.4 mph SE8.7 kmh SE 9.2 mph14.8 kmh 29.78 in1008.5 mb 0.00 in0.0 mm 0.00 in0.0 mm 0.00 in0.0 mm
06:30 AM 74.8°F23.8°C 68.3°F20.2°C 80% 6.9 mph SE11.1 kmh SE 9.8 mph15.8 kmh 29.78 in1008.5 mb 0.00 in0.0 mm 0.00 in0.0 mm 0.00 in0.0 mm
06:25 AM 74.8°F23.8°C 67.9°F19.9°C 79% 6.9 mph SE11.1 kmh SE 9.8 mph15.8 kmh 29.78 in1008.5 mb 0.00 in0.0 mm 0.00 in0.0 mm 0.00 in0.0 mm
06:20 AM 75.0°F23.9°C 68.1°F20.1°C 79% 6.0 mph SE9.7 kmh SE 9.8 mph15.8 kmh 29.79 in1008.8 mb 0.00 in0.0 mm 0.00 in0.0 mm 0.00 in0.0 mm
06:15 AM 75.0°F23.9°C 68.1°F20.1°C 79% 6.9 mph SE11.1 kmh SE 9.8 mph15.8 kmh 29.78 in1008.5 mb 0.00 in0.0 mm 0.00 in0.0 mm 0.00 in0.0 mm
06:10 AM 75.0°F23.9°C 68.1°F20.1°C 79% 6.9 mph SE11.1 kmh SE 11.4 mph18.3 kmh 29.78 in1008.5 mb 0.00 in0.0 mm 0.00 in0.0 mm 0.00 in0.0 mm
06:05 AM 75.0°F23.9°C 68.1°F20.1°C 79% 5.4 mph SE8.7 kmh SE 13.6 mph21.9 kmh 29.78 in1008.5 mb 0.00 in0.0 mm 0.00 in0.0 mm 0.00 in0.0 mm
06:00 AM 75.0°F23.9°C 68.1°F20.1°C 79% 6.9 mph SE11.1 kmh SE 13.6 mph21.9 kmh 29.78 in1008.5 mb 0.00 in0.0 mm 0.00 in0.0 mm 0.00 in0.0 mm
05:55 AM 75.2°F24.0°C 68.3°F20.2°C 79% 9.8 mph SE15.8 kmh SE 13.6 mph21.9 kmh 29.78 in1008.5 mb 0.00 in0.0 mm 0.00 in0.0 mm 0.00 in0.0 mm
05:50 AM 75.2°F24.0°C 68.3°F20.2°C 79% 7.6 mph SE12.2 kmh SE 13.6 mph21.9 kmh 29.78 in1008.5 mb 0.00 in0.0 mm 0.00 in0.0 mm 0.00 in0.0 mm
05:45 AM 75.4°F24.1°C 68.5°F20.3°C 79% 5.4 mph SE8.7 kmh SE 9.8 mph15.8 kmh 29.77 in1008.1 mb 0.00 in0.0 mm 0.00 in0.0 mm 0.00 in0.0 mm
05:40 AM 75.2°F24.0°C 68.3°F20.2°C 79% 6.9 mph SE11.1 kmh SE 11.4 mph18.3 kmh 29.77 in1008.1 mb 0.00 in0.0 mm 0.00 in0.0 mm 0.00 in0.0 mm
05:35 AM 75.4°F24.1°C 68.5°F20.3°C 79% 6.0 mph SE9.7 kmh SE 11.4 mph18.3 kmh 29.77 in1008.1 mb 0.00 in0.0 mm 0.00 in0.0 mm 0.00 in0.0 mm
05:30 AM 75.6°F24.2°C 68.3°F20.2°C 78% 8.3 mph SE13.4 kmh SE 11.4 mph18.3 kmh 29.78 in1008.5 mb 0.00 in0.0 mm 0.00 in0.0 mm 0.00 in0.0 mm
05:25 AM 75.6°F24.2°C 68.3°F20.2°C 78% 6.0 mph SE9.7 kmh SE 12.1 mph19.5 kmh 29.77 in1008.1 mb 0.00 in0.0 mm 0.00 in0.0 mm 0.00 in0.0 mm
05:20 AM 75.7°F24.3°C 68.4°F20.2°C 78% 6.9 mph SE11.1 kmh SE 13.6 mph21.9 kmh 29.78 in1008.5 mb 0.00 in0.0 mm 0.00 in0.0 mm 0.00 in0.0 mm
05:15 AM 75.7°F24.3°C 68.4°F20.2°C 78% 6.9 mph SE11.1 kmh SE 13.6 mph21.9 kmh 29.78 in1008.5 mb 0.00 in0.0 mm 0.00 in0.0 mm 0.00 in0.0 mm
05:10 AM 75.9°F24.4°C 68.6°F20.3°C 78% 7.6 mph SE12.2 kmh SE 14.5 mph23.3 kmh 29.78 in1008.5 mb 0.00 in0.0 mm 0.00 in0.0 mm 0.00 in0.0 mm
05:05 AM 75.9°F24.4°C 68.6°F20.3°C 78% 7.6 mph SSE12.2 kmh SSE 14.5 mph23.3 kmh 29.78 in1008.5 mb 0.00 in0.0 mm 0.00 in0.0 mm 0.00 in0.0 mm
05:00 AM 75.9°F24.4°C 68.6°F20.3°C 78% 6.0 mph SSE9.7 kmh SSE 15.9 mph25.6 kmh 29.77 in1008.1 mb 0.00 in0.0 mm 0.00 in0.0 mm 0.00 in0.0 mm
04:55 AM 75.9°F24.4°C 68.6°F20.3°C 78% 9.2 mph SSE14.8 kmh SSE 15.9 mph25.6 kmh 29.77 in1008.1 mb 0.00 in0.0 mm 0.00 in0.0 mm 0.00 in0.0 mm
04:50 AM 76.1°F24.5°C 68.8°F20.4°C 78% 9.2 mph SSE14.8 kmh SSE 15.2 mph24.5 kmh 29.77 in1008.1 mb 0.00 in0.0 mm 0.00 in0.0 mm 0.00 in0.0 mm
04:45 AM 75.9°F24.4°C 68.2°F20.1°C 77% 9.8 mph SE15.8 kmh SE 15.2 mph24.5 kmh 29.77 in1008.1 mb 0.00 in0.0 mm 0.00 in0.0 mm 0.00 in0.0 mm
04:40 AM 76.1°F24.5°C 68.4°F20.2°C 77% 7.6 mph SE12.2 kmh SE 13.6 mph21.9 kmh 29.78 in1008.5 mb 0.00 in0.0 mm 0.00 in0.0 mm 0.00 in0.0 mm
04:35 AM 76.1°F24.5°C 68.4°F20.2°C 77% 7.6 mph SSE12.2 kmh SSE 13.0 mph20.9 kmh 29.77 in1008.1 mb 0.00 in0.0 mm 0.00 in0.0 mm 0.00 in0.0 mm
04:30 AM 76.1°F24.5°C 68.4°F20.2°C 77% 7.6 mph SE12.2 kmh SE 14.5 mph23.3 kmh 29.78 in1008.5 mb 0.00 in0.0 mm 0.00 in0.0 mm 0.00 in0.0 mm
04:25 AM 76.3°F24.6°C 68.6°F20.3°C 77% 6.9 mph SE11.1 kmh SE 14.5 mph23.3 kmh 29.78 in1008.5 mb 0.00 in0.0 mm 0.00 in0.0 mm 0.00 in0.0 mm
04:20 AM 76.3°F24.6°C 68.6°F20.3°C 77% 10.7 mph SE17.2 kmh SE 15.9 mph25.6 kmh 29.78 in1008.5 mb 0.00 in0.0 mm 0.00 in0.0 mm 0.00 in0.0 mm
04:15 AM 76.3°F24.6°C 68.6°F20.3°C 77% 6.0 mph SE9.7 kmh SE 15.9 mph25.6 kmh 29.78 in1008.5 mb 0.00 in0.0 mm 0.00 in0.0 mm 0.00 in0.0 mm
04:10 AM 76.3°F24.6°C 68.2°F20.1°C 76% 7.6 mph SSE12.2 kmh SSE 13.0 mph20.9 kmh 29.78 in1008.5 mb 0.00 in0.0 mm 0.00 in0.0 mm 0.00 in0.0 mm
04:05 AM 76.3°F24.6°C 68.2°F20.1°C 76% 8.3 mph SE13.4 kmh SE 13.6 mph21.9 kmh 29.78 in1008.5 mb 0.00 in0.0 mm 0.00 in0.0 mm 0.00 in0.0 mm
04:00 AM 76.5°F24.7°C 68.4°F20.2°C 76% 9.8 mph SE15.8 kmh SE 13.6 mph21.9 kmh 29.77 in1008.1 mb 0.00 in0.0 mm 0.00 in0.0 mm 0.00 in0.0 mm
03:55 AM 76.5°F24.7°C 68.4°F20.2°C 76% 6.9 mph SE11.1 kmh SE 13.6 mph21.9 kmh 29.78 in1008.5 mb 0.00 in0.0 mm 0.00 in0.0 mm 0.00 in0.0 mm
03:50 AM 76.5°F24.7°C 68.4°F20.2°C 76% 4.5 mph SE7.2 kmh SE 13.6 mph21.9 kmh 29.77 in1008.1 mb 0.00 in0.0 mm 0.00 in0.0 mm 0.00 in0.0 mm
03:45 AM 76.6°F24.8°C 68.6°F20.3°C 76% 5.4 mph SE8.7 kmh SE 12.1 mph19.5 kmh 29.77 in1008.1 mb 0.00 in0.0 mm 0.00 in0.0 mm 0.00 in0.0 mm
03:40 AM 76.6°F24.8°C 68.2°F20.1°C 75% 3.8 mph SE6.1 kmh SE 12.1 mph19.5 kmh 29.77 in1008.1 mb 0.00 in0.0 mm 0.00 in0.0 mm 0.00 in0.0 mm
03:35 AM 76.6°F24.8°C 68.2°F20.1°C 75% 7.6 mph SE12.2 kmh SE 12.1 mph19.5 kmh 29.77 in1008.1 mb 0.00 in0.0 mm 0.00 in0.0 mm 0.00 in0.0 mm
03:30 AM 76.8°F24.9°C 68.3°F20.2°C 75% 8.3 mph SE13.4 kmh SE 13.6 mph21.9 kmh 29.78 in1008.5 mb 0.00 in0.0 mm 0.00 in0.0 mm 0.00 in0.0 mm
03:25 AM 76.8°F24.9°C 68.3°F20.2°C 75% 7.6 mph SE12.2 kmh SE 13.6 mph21.9 kmh 29.78 in1008.5 mb 0.00 in0.0 mm 0.00 in0.0 mm 0.00 in0.0 mm
03:20 AM 76.8°F24.9°C 68.3°F20.2°C 75% 6.0 mph SE9.7 kmh SE 13.0 mph20.9 kmh 29.77 in1008.1 mb 0.00 in0.0 mm 0.00 in0.0 mm 0.00 in0.0 mm
03:15 AM 77.2°F25.1°C 68.7°F20.4°C 75% 8.3 mph SE13.4 kmh SE 13.0 mph20.9 kmh 29.77 in1008.1 mb 0.00 in0.0 mm 0.00 in0.0 mm 0.00 in0.0 mm
03:10 AM 77.0°F25.0°C 68.5°F20.3°C 75% 9.2 mph SE14.8 kmh SE 13.0 mph20.9 kmh 29.77 in1008.1 mb 0.00 in0.0 mm 0.00 in0.0 mm 0.00 in0.0 mm
03:05 AM 77.2°F25.1°C 68.7°F20.4°C 75% 8.3 mph SE13.4 kmh SE 13.0 mph20.9 kmh 29.77 in1008.1 mb 0.00 in0.0 mm 0.00 in0.0 mm 0.00 in0.0 mm
03:00 AM 77.2°F25.1°C 68.3°F20.2°C 74% 6.9 mph SE11.1 kmh SE 11.4 mph18.3 kmh 29.77 in1008.1 mb 0.00 in0.0 mm 0.00 in0.0 mm 0.00 in0.0 mm
02:55 AM 77.2°F25.1°C 68.3°F20.2°C 74% 5.4 mph SE8.7 kmh SE 10.7 mph17.2 kmh 29.78 in1008.5 mb 0.00 in0.0 mm 0.00 in0.0 mm 0.00 in0.0 mm
02:50 AM 77.4°F25.2°C 68.5°F20.3°C 74% 7.6 mph SE12.2 kmh SE 15.2 mph24.5 kmh 29.77 in1008.1 mb 0.00 in0.0 mm 0.00 in0.0 mm 0.00 in0.0 mm
02:45 AM 77.4°F25.2°C 68.5°F20.3°C 74% 7.6 mph SE12.2 kmh SE 15.2 mph24.5 kmh 29.78 in1008.5 mb 0.00 in0.0 mm 0.00 in0.0 mm 0.00 in0.0 mm
02:40 AM 77.4°F25.2°C 68.5°F20.3°C 74% 6.9 mph SE11.1 kmh SE 14.5 mph23.3 kmh 29.78 in1008.5 mb 0.00 in0.0 mm 0.00 in0.0 mm 0.00 in0.0 mm
02:35 AM 77.5°F25.3°C 68.6°F20.3°C 74% 9.2 mph SE14.8 kmh SE 14.5 mph23.3 kmh 29.78 in1008.5 mb 0.00 in0.0 mm 0.00 in0.0 mm 0.00 in0.0 mm
02:30 AM 77.7°F25.4°C 68.8°F20.4°C 74% 6.9 mph SE11.1 kmh SE 15.2 mph24.5 kmh 29.79 in1008.8 mb 0.00 in0.0 mm 0.00 in0.0 mm 0.00 in0.0 mm
02:25 AM 77.5°F25.3°C 68.2°F20.1°C 73% 6.9 mph SE11.1 kmh SE 15.2 mph24.5 kmh 29.78 in1008.5 mb 0.00 in0.0 mm 0.00 in0.0 mm 0.00 in0.0 mm
02:20 AM 77.7°F25.4°C 68.4°F20.2°C 73% 6.0 mph SE9.7 kmh SE 15.9 mph25.6 kmh 29.79 in1008.8 mb 0.00 in0.0 mm 0.00 in0.0 mm 0.00 in0.0 mm
02:15 AM 77.7°F25.4°C 68.4°F20.2°C 73% 8.3 mph ESE13.4 kmh ESE 15.9 mph25.6 kmh 29.78 in1008.5 mb 0.00 in0.0 mm 0.00 in0.0 mm 0.00 in0.0 mm
02:10 AM 77.7°F25.4°C 68.4°F20.2°C 73% 9.2 mph SE14.8 kmh SE 17.4 mph28.0 kmh 29.79 in1008.8 mb 0.00 in0.0 mm 0.00 in0.0 mm 0.00 in0.0 mm
02:05 AM 77.7°F25.4°C 68.4°F20.2°C 73% 9.2 mph ESE14.8 kmh ESE 17.4 mph28.0 kmh 29.79 in1008.8 mb 0.00 in0.0 mm 0.00 in0.0 mm 0.00 in0.0 mm
02:00 AM 77.9°F25.5°C 68.6°F20.3°C 73% 8.3 mph ESE13.4 kmh ESE 17.4 mph28.0 kmh 29.78 in1008.5 mb 0.00 in0.0 mm 0.00 in0.0 mm 0.00 in0.0 mm
01:55 AM 77.7°F25.4°C 68.4°F20.2°C 73% 8.3 mph SE13.4 kmh SE 17.4 mph28.0 kmh 29.78 in1008.5 mb 0.00 in0.0 mm 0.00 in0.0 mm 0.00 in0.0 mm
01:50 AM 77.9°F25.5°C 68.6°F20.3°C 73% 9.8 mph ESE15.8 kmh ESE 16.8 mph27.0 kmh 29.78 in1008.5 mb 0.00 in0.0 mm 0.00 in0.0 mm 0.00 in0.0 mm
01:45 AM 77.9°F25.5°C 68.6°F20.3°C 73% 9.8 mph ESE15.8 kmh ESE 16.8 mph27.0 kmh 29.79 in1008.8 mb 0.00 in0.0 mm 0.00 in0.0 mm 0.00 in0.0 mm
01:40 AM 77.9°F25.5°C 68.6°F20.3°C 73% 9.8 mph ESE15.8 kmh ESE 19.7 mph31.7 kmh 29.78 in1008.5 mb 0.00 in0.0 mm 0.00 in0.0 mm 0.00 in0.0 mm
01:35 AM 77.9°F25.5°C 68.6°F20.3°C 73% 10.7 mph ESE17.2 kmh ESE 19.7 mph31.7 kmh 29.79 in1008.8 mb 0.00 in0.0 mm 0.00 in0.0 mm 0.00 in0.0 mm
01:30 AM 77.9°F25.5°C 68.6°F20.3°C 73% 13.6 mph ESE21.9 kmh ESE 19.7 mph31.7 kmh 29.79 in1008.8 mb 0.00 in0.0 mm 0.00 in0.0 mm 0.00 in0.0 mm
01:25 AM 77.9°F25.5°C 68.6°F20.3°C 73% 12.1 mph ESE19.5 kmh ESE 15.9 mph25.6 kmh 29.80 in1009.1 mb 0.00 in0.0 mm 0.00 in0.0 mm 0.00 in0.0 mm
01:20 AM 77.7°F25.4°C 68.4°F20.2°C 73% 8.3 mph ESE13.4 kmh ESE 18.3 mph29.5 kmh 29.80 in1009.1 mb 0.00 in0.0 mm 0.00 in0.0 mm 0.00 in0.0 mm
01:15 AM 77.5°F25.3°C 68.2°F20.1°C 73% 10.7 mph E17.2 kmh E 18.3 mph29.5 kmh 29.80 in1009.1 mb 0.00 in0.0 mm 0.00 in0.0 mm 0.00 in0.0 mm
01:10 AM 77.5°F25.3°C 68.2°F20.1°C 73% 6.0 mph E9.7 kmh E 10.7 mph17.2 kmh 29.80 in1009.1 mb 0.00 in0.0 mm 0.00 in0.0 mm 0.00 in0.0 mm
01:05 AM 77.5°F25.3°C 68.2°F20.1°C 73% 5.4 mph ESE8.7 kmh ESE 9.2 mph14.8 kmh 29.80 in1009.1 mb 0.00 in0.0 mm 0.00 in0.0 mm 0.00 in0.0 mm
01:00 AM 77.9°F25.5°C 68.6°F20.3°C 73% 3.8 mph E6.1 kmh E 13.0 mph20.9 kmh 29.79 in1008.8 mb 0.00 in0.0 mm 0.00 in0.0 mm 0.00 in0.0 mm
12:55 AM 77.9°F25.5°C 69.0°F20.6°C 74% 5.4 mph NE8.7 kmh NE 13.0 mph20.9 kmh 29.79 in1008.8 mb 0.00 in0.0 mm 0.00 in0.0 mm 0.00 in0.0 mm
12:50 AM 77.7°F25.4°C 68.8°F20.4°C 74% 4.5 mph NE7.2 kmh NE 10.7 mph17.2 kmh 29.80 in1009.1 mb 0.00 in0.0 mm 0.00 in0.0 mm 0.00 in0.0 mm
12:45 AM 77.7°F25.4°C 68.4°F20.2°C 73% 5.4 mph NE8.7 kmh NE 7.6 mph12.2 kmh 29.80 in1009.1 mb 0.00 in0.0 mm 0.00 in0.0 mm 0.00 in0.0 mm
12:40 AM 77.7°F25.4°C 68.4°F20.2°C 73% 3.1 mph NE5.0 kmh NE 7.6 mph12.2 kmh 29.80 in1009.1 mb 0.00 in0.0 mm 0.00 in0.0 mm 0.00 in0.0 mm
12:35 AM 77.7°F25.4°C 68.4°F20.2°C 73% 3.8 mph NNE6.1 kmh NNE 7.6 mph12.2 kmh 29.80 in1009.1 mb 0.00 in0.0 mm 0.00 in0.0 mm 0.00 in0.0 mm
12:30 AM 77.7°F25.4°C 68.4°F20.2°C 73% 4.5 mph NNE7.2 kmh NNE 7.6 mph12.2 kmh 29.80 in1009.1 mb 0.00 in0.0 mm 0.00 in0.0 mm 0.00 in0.0 mm
12:25 AM 77.7°F25.4°C 68.4°F20.2°C 73% 5.4 mph NE8.7 kmh NE 9.2 mph14.8 kmh 29.81 in1009.5 mb 0.00 in0.0 mm 0.00 in0.0 mm 0.00 in0.0 mm
12:20 AM 77.7°F25.4°C 68.4°F20.2°C 73% 4.5 mph NNE7.2 kmh NNE 9.2 mph14.8 kmh 29.81 in1009.5 mb 0.00 in0.0 mm 0.00 in0.0 mm 0.00 in0.0 mm
12:15 AM 77.9°F25.5°C 68.6°F20.3°C 73% 5.4 mph N8.7 kmh N 9.8 mph15.8 kmh 29.81 in1009.5 mb 0.00 in0.0 mm 0.00 in0.0 mm 0.00 in0.0 mm
12:10 AM 77.9°F25.5°C 68.6°F20.3°C 73% 3.8 mph N6.1 kmh N 10.7 mph17.2 kmh 29.81 in1009.5 mb 0.00 in0.0 mm 0.00 in0.0 mm 0.00 in0.0 mm
12:05 AM 78.1°F25.6°C 68.4°F20.2°C 72% 7.6 mph N12.2 kmh N 10.7 mph17.2 kmh 29.81 in1009.5 mb 0.00 in0.0 mm 0.00 in0.0 mm 0.00 in0.0 mm
12:00 AM 78.1°F25.6°C 68.4°F20.2°C 72% 5.4 mph N8.7 kmh N 9.2 mph14.8 kmh 29.81 in1009.5 mb 0.00 in0.0 mm 0.00 in0.0 mm 0.00 in0.0 mm